createdAt,value
2022-10-02T00:00:38.796Z,0.30
2022-10-02T00:03:15.806Z,0.45
2022-10-02T00:05:44.655Z,0.40
2022-10-02T00:08:18.905Z,0.30
2022-10-02T00:10:48.735Z,0.30
2022-10-02T00:13:33.549Z,0.20
2022-10-02T00:16:01.762Z,0.50
2022-10-02T00:18:35.730Z,0.40
2022-10-02T00:21:20.860Z,0.38
2022-10-02T00:23:54.985Z,0.30
2022-10-02T00:26:23.705Z,0.30
2022-10-02T00:29:02.128Z,0.20
2022-10-02T00:31:41.395Z,0.30
2022-10-02T00:34:27.035Z,0.20
2022-10-02T00:36:59.187Z,0.30
2022-10-02T00:42:27.152Z,0.20
2022-10-02T00:45:02.390Z,0.30
2022-10-02T00:47:34.416Z,0.20
2022-10-02T00:50:03.977Z,0.30
2022-10-02T00:52:45.436Z,0.20
2022-10-02T00:55:30.371Z,0.50
2022-10-02T00:57:56.610Z,0.50
2022-10-02T01:00:25.890Z,0.30
2022-10-02T01:02:55.122Z,0.15
2022-10-02T01:05:21.567Z,0.40
2022-10-02T01:07:50.215Z,0.40
2022-10-02T01:10:17.059Z,0.22
2022-10-02T01:12:43.555Z,0.57
2022-10-02T01:15:11.001Z,0.25
2022-10-02T01:17:37.420Z,0.32
2022-10-02T01:20:07.914Z,0.40
2022-10-02T01:22:37.143Z,0.52
2022-10-02T01:25:05.138Z,0.38
2022-10-02T01:27:34.531Z,0.28
2022-10-02T01:30:07.405Z,0.45
2022-10-02T01:32:33.968Z,0.60
2022-10-02T01:35:00.884Z,0.50
2022-10-02T01:37:29.654Z,0.40
2022-10-02T01:39:58.964Z,0.60
2022-10-02T01:42:25.429Z,0.52
2022-10-02T01:44:51.856Z,0.63
2022-10-02T01:47:36.687Z,0.35
2022-10-02T01:50:16.971Z,0.50
2022-10-02T01:52:49.290Z,0.68
2022-10-02T01:55:34.153Z,0.63
2022-10-02T01:58:20.631Z,0.60
2022-10-02T02:01:11.106Z,0.70
2022-10-02T02:03:55.741Z,0.77
2022-10-02T02:06:45.358Z,0.70
2022-10-02T02:09:26.864Z,0.43
2022-10-02T02:12:11.716Z,0.50
2022-10-02T02:14:42.553Z,0.70
2022-10-02T02:17:13.586Z,1.00
2022-10-02T02:19:42.561Z,0.80
2022-10-02T02:22:15.924Z,0.80
2022-10-02T02:24:49.512Z,0.73
2022-10-02T02:27:18.420Z,0.80
2022-10-02T02:29:46.230Z,0.70
2022-10-02T02:32:14.270Z,0.70
2022-10-02T02:34:46.047Z,0.80
2022-10-02T02:37:16.272Z,0.80
2022-10-02T02:39:42.459Z,0.73
2022-10-02T02:42:11.534Z,0.60
2022-10-02T02:44:52.875Z,0.63
2022-10-02T02:47:24.309Z,0.90
2022-10-02T02:49:56.596Z,0.60
2022-10-02T02:52:27.995Z,0.80
2022-10-02T02:54:56.290Z,0.60
2022-10-02T02:57:26.962Z,0.80
2022-10-02T02:59:54.502Z,0.77
2022-10-02T03:02:20.771Z,0.73
2022-10-02T03:04:47.040Z,0.70
2022-10-02T03:07:15.177Z,0.70
2022-10-02T03:09:42.467Z,0.60
2022-10-02T03:12:11.939Z,0.80
2022-10-02T03:14:47.276Z,0.60
2022-10-02T03:17:24.288Z,0.82
2022-10-02T03:19:54.234Z,0.75
2022-10-02T03:22:27.979Z,0.60
2022-10-02T03:25:00.068Z,0.75
2022-10-02T03:29:58.762Z,0.70
2022-10-02T03:32:26.351Z,0.70
2022-10-02T03:34:52.618Z,0.80
2022-10-02T03:37:18.994Z,0.80
2022-10-02T03:39:45.669Z,0.73
2022-10-02T03:42:13.220Z,0.80
2022-10-02T03:44:39.430Z,0.50
2022-10-02T03:47:05.644Z,0.70
2022-10-02T03:49:31.951Z,0.88
2022-10-02T03:51:58.187Z,0.70
2022-10-02T03:54:24.684Z,0.93
2022-10-02T03:56:57.806Z,0.70
2022-10-02T03:59:42.785Z,0.93
2022-10-02T04:02:16.787Z,1.10
2022-10-02T04:04:49.956Z,0.73
2022-10-02T04:07:20.430Z,0.70
2022-10-02T04:09:50.567Z,0.60
2022-10-02T04:12:20.737Z,1.00
2022-10-02T04:14:55.237Z,0.90
2022-10-02T04:17:30.627Z,0.80
2022-10-02T04:19:59.331Z,1.00
2022-10-02T04:22:39.232Z,0.80
2022-10-02T04:25:14.422Z,0.80
2022-10-02T04:27:40.620Z,0.70
2022-10-02T04:30:16.593Z,0.80
2022-10-02T04:32:43.121Z,0.90
2022-10-02T04:35:13.564Z,1.15
2022-10-02T04:37:58.603Z,1.00
2022-10-02T04:40:34.765Z,0.70
2022-10-02T04:43:03.795Z,0.50
2022-10-02T04:45:30.203Z,0.90
2022-10-02T04:48:14.286Z,0.68
2022-10-02T04:51:00.773Z,0.70
2022-10-02T04:53:45.610Z,0.50
2022-10-02T04:56:30.790Z,0.80
2022-10-02T04:59:15.835Z,0.50
2022-10-02T05:01:42.051Z,0.68
2022-10-02T05:04:27.312Z,0.50
2022-10-02T05:07:06.101Z,1.15
2022-10-02T05:09:37.188Z,0.90
2022-10-02T05:12:12.275Z,1.20
2022-10-02T05:14:51.051Z,0.70
2022-10-02T05:17:20.044Z,0.50
2022-10-02T05:19:49.456Z,0.80
2022-10-02T05:22:24.332Z,0.80
2022-10-02T05:24:55.341Z,0.30
2022-10-02T05:27:24.829Z,0.43
2022-10-02T05:29:51.019Z,0.82
2022-10-02T05:32:17.195Z,0.70
2022-10-02T05:34:46.136Z,0.70
2022-10-02T05:37:17.803Z,0.70
2022-10-02T05:39:54.114Z,0.70
2022-10-02T05:42:26.720Z,0.70
2022-10-02T05:44:58.968Z,0.90
2022-10-02T05:47:46.944Z,0.80
2022-10-02T05:50:27.285Z,0.52
2022-10-02T05:52:59.599Z,0.57
2022-10-02T05:55:31.585Z,0.90
2022-10-02T05:57:57.763Z,0.55
2022-10-02T06:00:28.344Z,0.50
2022-10-02T06:03:13.407Z,0.57
2022-10-02T06:05:39.608Z,0.82
2022-10-02T06:08:07.522Z,1.00
2022-10-02T06:10:42.444Z,1.08
2022-10-02T06:13:18.883Z,0.82
2022-10-02T06:15:50.952Z,0.82
2022-10-02T06:18:22.526Z,0.75
2022-10-02T06:21:10.138Z,0.70
2022-10-02T06:23:40.794Z,0.90
2022-10-02T06:26:11.251Z,0.65
2022-10-02T06:28:42.966Z,1.00
2022-10-02T06:31:18.244Z,1.13
2022-10-02T06:33:45.298Z,0.68
2022-10-02T06:36:12.799Z,0.70
2022-10-02T06:38:48.599Z,0.80
2022-10-02T06:41:20.971Z,0.80
2022-10-02T06:43:56.275Z,0.90
2022-10-02T06:46:27.972Z,0.82
2022-10-02T06:48:59.134Z,0.80
2022-10-02T06:51:32.427Z,0.90
2022-10-02T06:54:08.892Z,0.95
2022-10-02T06:56:41.227Z,0.95
2022-10-02T06:59:12.447Z,0.80
2022-10-02T07:01:57.191Z,0.80
2022-10-02T07:04:33.035Z,0.73
2022-10-02T07:07:19.280Z,0.93
2022-10-02T07:09:57.017Z,0.63
2022-10-02T07:12:47.014Z,0.68
2022-10-02T07:15:42.709Z,0.90
2022-10-02T07:18:32.204Z,0.68
2022-10-02T07:21:09.538Z,0.60
2022-10-02T07:23:46.083Z,0.70
2022-10-02T07:26:19.425Z,0.80
2022-10-02T07:29:08.748Z,0.60
2022-10-02T07:31:45.875Z,0.63
2022-10-02T07:34:15.440Z,0.90
2022-10-02T07:37:00.586Z,0.55
2022-10-02T07:39:26.880Z,0.60
2022-10-02T07:42:10.397Z,0.52
2022-10-02T07:44:56.354Z,0.50
2022-10-02T07:47:35.001Z,0.65
2022-10-02T07:50:12.306Z,0.70
2022-10-02T07:52:46.244Z,0.80
2022-10-02T07:55:17.264Z,0.50
2022-10-02T07:58:01.985Z,0.90
2022-10-02T08:00:29.755Z,0.77
2022-10-02T08:03:07.772Z,0.60
2022-10-02T08:05:52.076Z,0.57
2022-10-02T08:08:21.746Z,0.65
2022-10-02T08:10:51.346Z,0.40
2022-10-02T08:13:20.639Z,0.82
2022-10-02T08:15:50.189Z,0.65
2022-10-02T08:18:36.088Z,0.60
2022-10-02T08:21:10.136Z,0.70
2022-10-02T08:23:48.400Z,0.50
2022-10-02T08:26:30.672Z,0.57
2022-10-02T08:29:05.791Z,0.50
2022-10-02T08:31:32.880Z,0.80
2022-10-02T08:34:13.011Z,0.60
2022-10-02T08:36:45.170Z,0.60
2022-10-02T08:39:29.324Z,0.60
2022-10-02T08:41:55.553Z,0.80
2022-10-02T08:44:36.140Z,0.68
2022-10-02T08:47:22.698Z,0.63
2022-10-02T08:50:15.297Z,0.50
2022-10-02T08:52:44.483Z,0.40
2022-10-02T08:55:10.663Z,0.50
2022-10-02T08:57:52.195Z,0.60
2022-10-02T09:00:39.536Z,0.63
2022-10-02T09:03:05.786Z,0.47
2022-10-02T09:05:41.531Z,0.60
2022-10-02T09:08:20.332Z,0.70
2022-10-02T09:11:05.226Z,0.60
2022-10-02T09:13:42.326Z,0.50
2022-10-02T09:16:10.295Z,0.73
2022-10-02T09:18:42.761Z,0.40
2022-10-02T09:21:11.605Z,0.40
2022-10-02T09:23:38.133Z,0.60
2022-10-02T09:26:19.408Z,0.60
2022-10-02T09:29:04.427Z,0.50
2022-10-02T09:31:48.940Z,0.50
2022-10-02T09:34:22.864Z,0.60
2022-10-02T09:36:49.247Z,0.60
2022-10-02T09:39:15.466Z,0.60
2022-10-02T09:41:54.032Z,0.43
2022-10-02T09:44:30.231Z,0.57
2022-10-02T09:47:08.429Z,0.50
2022-10-02T09:49:53.494Z,0.40
2022-10-02T09:52:42.008Z,0.40
2022-10-02T09:55:09.064Z,0.40
2022-10-02T09:57:49.631Z,0.30
2022-10-02T10:00:21.932Z,0.50
2022-10-02T10:03:14.595Z,0.55
2022-10-02T10:05:57.513Z,0.52
2022-10-02T10:08:42.537Z,0.65
2022-10-02T10:11:14.924Z,0.40
2022-10-02T10:14:04.807Z,0.65
2022-10-02T10:16:47.210Z,0.40
2022-10-02T10:19:32.769Z,0.50
2022-10-02T10:22:08.229Z,0.50
2022-10-02T10:24:52.764Z,0.70
2022-10-02T10:27:22.109Z,0.40
2022-10-02T10:30:00.630Z,0.50
2022-10-02T10:32:39.164Z,0.47
2022-10-02T10:35:11.657Z,0.63
2022-10-02T10:38:11.910Z,0.50
2022-10-02T10:40:42.885Z,0.43
2022-10-02T10:43:16.594Z,0.40
2022-10-02T10:45:55.961Z,0.45
2022-10-02T10:48:33.659Z,0.40
2022-10-02T10:51:18.739Z,0.30
2022-10-02T10:54:05.389Z,0.55
2022-10-02T10:56:36.880Z,0.50
2022-10-02T10:59:04.980Z,0.43
2022-10-02T11:01:54.524Z,0.40
2022-10-02T11:04:39.210Z,0.38
2022-10-02T11:07:16.230Z,0.38
2022-10-02T11:10:05.699Z,0.40
2022-10-02T11:12:48.242Z,0.30
2022-10-02T11:15:29.744Z,0.30
2022-10-02T11:18:00.696Z,0.32
2022-10-02T11:20:34.535Z,0.60
2022-10-02T11:23:15.531Z,0.40
2022-10-02T11:25:56.060Z,0.52
2022-10-02T11:28:31.272Z,0.40
2022-10-02T11:31:16.490Z,0.43
2022-10-02T11:33:49.002Z,0.50
2022-10-02T11:36:41.577Z,0.40
2022-10-02T11:39:26.648Z,0.30
2022-10-02T11:42:13.178Z,0.40
2022-10-02T11:44:58.129Z,0.50
2022-10-02T11:47:30.526Z,0.60
2022-10-02T11:50:15.553Z,0.50
2022-10-02T11:52:57.030Z,0.50
2022-10-02T11:55:43.679Z,0.70
2022-10-02T11:58:29.281Z,0.50
2022-10-02T12:00:58.860Z,0.43
2022-10-02T12:03:36.279Z,0.60
2022-10-02T12:06:21.380Z,0.32
2022-10-02T12:08:58.684Z,0.57
2022-10-02T12:11:42.065Z,0.50
2022-10-02T12:14:19.129Z,0.60
2022-10-02T12:16:52.035Z,0.50
2022-10-02T12:19:39.551Z,0.52
2022-10-02T12:22:31.468Z,0.40
2022-10-02T12:25:21.790Z,0.80
2022-10-02T12:28:11.737Z,0.40
2022-10-02T12:30:47.141Z,0.32
2022-10-02T12:33:22.575Z,0.50
2022-10-02T12:35:54.882Z,0.40
2022-10-02T12:38:24.134Z,0.30
2022-10-02T12:41:09.204Z,0.40
2022-10-02T12:43:55.275Z,0.68
2022-10-02T12:46:40.951Z,0.57
2022-10-02T12:49:20.172Z,0.40
2022-10-02T12:51:59.625Z,0.40
2022-10-02T12:54:34.823Z,0.30
2022-10-02T12:57:46.188Z,0.40
2022-10-02T13:00:16.902Z,0.38
2022-10-02T13:03:00.952Z,0.50
2022-10-02T13:05:27.965Z,0.50
2022-10-02T13:07:56.934Z,0.30
2022-10-02T13:10:24.551Z,0.25
2022-10-02T13:13:02.837Z,0.40
2022-10-02T13:15:54.690Z,0.38
2022-10-02T13:18:33.747Z,0.25
2022-10-02T13:21:06.164Z,0.30
2022-10-02T13:23:42.107Z,0.30
2022-10-02T13:26:15.686Z,0.32
2022-10-02T13:29:02.343Z,0.47
2022-10-02T13:31:36.518Z,0.30
2022-10-02T13:34:11.737Z,0.28
2022-10-02T13:36:37.915Z,0.32
2022-10-02T13:39:27.132Z,0.40
2022-10-02T13:42:11.487Z,0.40
2022-10-02T13:44:49.692Z,0.35
2022-10-02T13:47:34.116Z,0.40
2022-10-02T13:50:00.299Z,0.35
2022-10-02T13:52:41.853Z,0.57
2022-10-02T13:55:08.095Z,0.20
2022-10-02T13:57:34.288Z,0.20
2022-10-02T14:00:04.265Z,0.32
2022-10-02T14:02:30.527Z,0.30
2022-10-02T14:05:00.446Z,0.57
2022-10-02T14:07:33.284Z,0.50
2022-10-02T14:09:59.610Z,0.50
2022-10-02T14:12:30.090Z,0.40
2022-10-02T14:15:16.585Z,0.57
2022-10-02T14:17:42.940Z,0.35
2022-10-02T14:20:19.896Z,0.30
2022-10-02T14:22:46.781Z,0.30
2022-10-02T14:25:27.284Z,0.30
2022-10-02T14:28:07.045Z,0.40
2022-10-02T14:30:33.279Z,0.20
2022-10-02T14:33:08.435Z,0.30
2022-10-02T14:35:41.279Z,0.50
2022-10-02T14:38:12.922Z,0.40
2022-10-02T14:40:52.776Z,0.40
2022-10-02T14:43:22.092Z,0.50
2022-10-02T14:45:50.216Z,0.30
2022-10-02T14:48:16.474Z,0.30
2022-10-02T14:50:57.328Z,0.30
2022-10-02T14:53:26.638Z,0.35
2022-10-02T14:56:07.847Z,0.70
2022-10-02T14:58:46.310Z,0.55
2022-10-02T15:01:22.678Z,0.30
2022-10-02T15:03:52.140Z,0.43
2022-10-02T15:06:31.406Z,0.50
2022-10-02T15:09:10.165Z,0.30
2022-10-02T15:11:36.673Z,0.55
2022-10-02T15:14:07.035Z,0.57
2022-10-02T15:16:59.335Z,0.30
2022-10-02T15:21:52.019Z,0.40
2022-10-02T15:24:55.030Z,0.35
2022-10-02T15:27:37.894Z,0.40
2022-10-02T15:30:12.863Z,0.50
2022-10-02T15:32:57.749Z,0.28
2022-10-02T15:35:40.864Z,0.50
2022-10-02T15:38:17.016Z,0.25
2022-10-02T15:40:55.370Z,0.30
2022-10-02T15:43:34.840Z,0.20
2022-10-02T15:46:24.380Z,0.30
2022-10-02T15:48:56.407Z,0.40
2022-10-02T15:51:22.600Z,0.20
2022-10-02T15:54:04.177Z,0.40
2022-10-02T15:56:49.262Z,0.38
2022-10-02T15:59:21.693Z,0.30
2022-10-02T16:01:51.007Z,0.30
2022-10-02T16:04:29.510Z,0.35
2022-10-02T16:07:24.788Z,0.50
2022-10-02T16:09:53.756Z,0.30
2022-10-02T16:12:42.162Z,0.50
2022-10-02T16:15:27.343Z,0.20
2022-10-02T16:18:04.206Z,0.40
2022-10-02T16:20:37.053Z,0.35
2022-10-02T16:23:10.756Z,0.20
2022-10-02T16:25:47.252Z,0.45
2022-10-02T16:28:49.054Z,0.30
2022-10-02T16:31:23.132Z,0.40
2022-10-02T16:33:51.028Z,0.45
2022-10-02T16:36:20.086Z,0.50
2022-10-02T16:38:50.780Z,0.40
2022-10-02T16:41:20.397Z,0.40
2022-10-02T16:43:46.643Z,0.38
2022-10-02T16:46:19.081Z,0.35
2022-10-02T16:48:51.797Z,0.38
2022-10-02T16:51:30.236Z,0.50
2022-10-02T16:54:10.376Z,0.38
2022-10-02T16:56:55.310Z,0.38
2022-10-02T16:59:24.936Z,0.40
2022-10-02T17:02:16.977Z,0.40
2022-10-02T17:04:51.270Z,0.50
2022-10-02T17:07:17.672Z,0.30
2022-10-02T17:09:47.451Z,0.30
2022-10-02T17:12:29.945Z,0.28
2022-10-02T17:15:06.983Z,0.22
2022-10-02T17:17:42.036Z,0.30
2022-10-02T17:20:17.400Z,0.30
2022-10-02T17:23:03.312Z,0.35
2022-10-02T17:25:32.584Z,0.20
2022-10-02T17:28:02.869Z,0.40
2022-10-02T17:30:31.387Z,0.32
2022-10-02T17:33:06.989Z,0.50
2022-10-02T17:35:41.741Z,0.22
2022-10-02T17:38:13.956Z,0.30
2022-10-02T17:40:55.557Z,0.30
2022-10-02T17:43:35.136Z,0.30
2022-10-02T17:46:19.388Z,0.30
2022-10-02T17:48:56.124Z,0.50
2022-10-02T17:54:33.209Z,0.45
2022-10-02T17:57:22.723Z,0.40
2022-10-02T17:59:48.910Z,0.50
2022-10-02T18:02:18.352Z,0.40
2022-10-02T18:05:04.907Z,0.40
2022-10-02T18:07:41.508Z,0.20
2022-10-02T18:10:13.716Z,0.30
2022-10-02T18:13:00.033Z,0.20
2022-10-02T18:15:41.298Z,0.30
2022-10-02T18:18:27.025Z,0.40
2022-10-02T18:21:00.545Z,0.30
2022-10-02T18:23:40.548Z,0.30
2022-10-02T18:26:19.317Z,0.40
2022-10-02T18:28:45.704Z,0.30
2022-10-02T18:31:22.778Z,0.30
2022-10-02T18:34:12.073Z,0.38
2022-10-02T18:36:49.942Z,0.40
2022-10-02T18:39:28.644Z,0.40
2022-10-02T18:41:55.308Z,0.47
2022-10-02T18:44:24.326Z,0.40
2022-10-02T18:47:03.141Z,0.50
2022-10-02T18:49:36.496Z,0.30
2022-10-02T18:52:05.947Z,0.40
2022-10-02T18:54:51.083Z,0.50
2022-10-02T18:57:25.006Z,0.50
2022-10-02T19:00:10.595Z,0.30
2022-10-02T19:02:50.021Z,0.40
2022-10-02T19:05:19.479Z,0.40
2022-10-02T19:08:03.910Z,0.32
2022-10-02T19:10:30.123Z,0.40
2022-10-02T19:13:17.962Z,0.40
2022-10-02T19:15:45.846Z,0.30
2022-10-02T19:18:16.230Z,0.28
2022-10-02T19:20:49.061Z,0.17
2022-10-02T19:23:21.237Z,0.40
2022-10-02T19:28:21.796Z,0.22
2022-10-02T19:30:50.039Z,0.30
2022-10-02T19:33:21.463Z,0.50
2022-10-02T19:35:47.938Z,0.30
2022-10-02T19:38:14.150Z,0.32
2022-10-02T19:40:41.226Z,0.30
2022-10-02T19:43:13.104Z,0.20
2022-10-02T19:45:41.130Z,0.60
2022-10-02T19:48:09.038Z,0.22
2022-10-02T19:50:44.272Z,0.10
2022-10-02T19:53:19.720Z,0.40
2022-10-02T19:55:49.008Z,0.30
2022-10-02T19:58:20.632Z,0.20
2022-10-02T20:00:49.115Z,0.17
2022-10-02T20:03:17.339Z,0.20
2022-10-02T20:05:44.382Z,0.28
2022-10-02T20:08:15.626Z,0.30
2022-10-02T20:10:46.179Z,0.40
2022-10-02T20:13:15.538Z,0.45
2022-10-02T20:16:04.656Z,0.30
2022-10-02T20:18:30.895Z,0.30
2022-10-02T20:21:07.358Z,0.40
2022-10-02T20:23:35.411Z,0.40
2022-10-02T20:26:08.596Z,0.47
2022-10-02T20:28:37.996Z,0.40
2022-10-02T20:31:05.958Z,0.32
2022-10-02T20:33:41.684Z,0.40
2022-10-02T20:36:08.046Z,0.20
2022-10-02T20:38:43.373Z,0.50
2022-10-02T20:41:19.443Z,0.40
2022-10-02T20:43:51.196Z,0.30
2022-10-02T20:46:36.256Z,0.47
2022-10-02T20:49:09.438Z,0.30
2022-10-02T20:51:52.323Z,0.30
2022-10-02T20:54:39.157Z,0.30
2022-10-02T20:57:14.884Z,0.35
2022-10-02T21:00:07.512Z,0.28
2022-10-02T21:05:19.395Z,0.30
2022-10-02T21:07:57.442Z,0.40
2022-10-02T21:10:34.428Z,0.30
2022-10-02T21:13:13.760Z,0.20
2022-10-02T21:15:52.084Z,0.20
2022-10-02T21:18:37.217Z,0.40
2022-10-02T21:21:28.827Z,0.30
2022-10-02T21:24:14.816Z,0.20
2022-10-02T21:26:43.917Z,0.40
2022-10-02T21:29:23.265Z,0.30
2022-10-02T21:31:56.355Z,0.30
2022-10-02T21:34:47.650Z,0.35
2022-10-02T21:37:22.235Z,0.35
2022-10-02T21:40:00.374Z,0.30
2022-10-02T21:42:42.015Z,0.50
2022-10-02T21:45:11.094Z,0.30
2022-10-02T21:47:37.340Z,0.20
2022-10-02T21:50:22.475Z,0.22
2022-10-02T21:53:09.460Z,0.20
2022-10-02T21:55:54.749Z,0.10
2022-10-02T21:58:36.349Z,0.22
2022-10-02T22:01:02.550Z,0.20
2022-10-02T22:03:47.283Z,0.30
2022-10-02T22:06:16.679Z,0.10
2022-10-02T22:08:43.594Z,0.20
2022-10-02T22:11:11.859Z,0.22
2022-10-02T22:13:39.131Z,0.35
2022-10-02T22:16:08.227Z,0.30
2022-10-02T22:18:44.320Z,0.28
2022-10-02T22:21:29.195Z,0.38
2022-10-02T22:23:58.554Z,0.30
2022-10-02T22:26:27.745Z,0.13
2022-10-02T22:29:08.266Z,0.30
2022-10-02T22:31:34.588Z,0.70
2022-10-02T22:34:25.843Z,0.30
2022-10-02T22:36:52.019Z,0.30
2022-10-02T22:39:24.152Z,0.20
2022-10-02T22:41:56.743Z,0.28
2022-10-02T22:44:26.724Z,0.28
2022-10-02T22:46:58.160Z,0.22
2022-10-02T22:49:31.284Z,0.43
2022-10-02T22:52:00.798Z,0.30
2022-10-02T22:55:02.974Z,0.40
2022-10-02T22:57:40.983Z,0.40
2022-10-02T23:00:18.653Z,0.40
2022-10-02T23:03:03.736Z,0.20
2022-10-02T23:05:33.076Z,0.30
2022-10-02T23:08:02.661Z,0.35
2022-10-02T23:10:35.737Z,0.20
2022-10-02T23:13:04.703Z,0.43
2022-10-02T23:15:35.658Z,0.15
2022-10-02T23:18:15.714Z,0.10
2022-10-02T23:20:45.207Z,0.32
2022-10-02T23:23:17.687Z,0.28
2022-10-02T23:25:43.873Z,0.30
2022-10-02T23:28:15.600Z,0.20
2022-10-02T23:30:45.464Z,0.20
2022-10-02T23:33:29.279Z,0.10
2022-10-02T23:36:01.100Z,0.20
2022-10-02T23:38:30.657Z,0.20
2022-10-02T23:41:21.997Z,0.30
2022-10-02T23:44:09.700Z,0.30
2022-10-02T23:46:40.471Z,0.32
2022-10-02T23:49:09.201Z,0.20
2022-10-02T23:51:42.302Z,0.38
2022-10-02T23:54:23.958Z,0.20
2022-10-02T23:57:08.446Z,0.20
2022-10-02T23:59:43.716Z,0.25
